createdAt,value
2022-11-23T00:01:18.691Z,5.80
2022-11-23T00:03:47.534Z,5.86
2022-11-23T00:06:16.109Z,5.90
2022-11-23T00:08:44.021Z,5.82
2022-11-23T00:11:11.990Z,5.83
2022-11-23T00:13:40.798Z,5.90
2022-11-23T00:16:09.528Z,5.87
2022-11-23T00:18:38.502Z,5.79
2022-11-23T00:21:09.419Z,5.81
2022-11-23T00:23:37.392Z,5.76
2022-11-23T00:26:05.678Z,5.74
2022-11-23T00:28:34.883Z,5.70
2022-11-23T00:31:02.507Z,5.68
2022-11-23T00:33:30.319Z,5.63
2022-11-23T00:36:03.291Z,5.60
2022-11-23T00:38:32.368Z,5.60
2022-11-23T00:41:01.550Z,5.49
2022-11-23T00:43:29.578Z,5.47
2022-11-23T00:46:05.630Z,5.40
2022-11-23T00:48:33.790Z,5.42
2022-11-23T00:51:03.440Z,5.38
2022-11-23T00:53:31.205Z,5.33
2022-11-23T00:55:59.326Z,5.38
2022-11-23T00:58:27.755Z,5.31
2022-11-23T01:01:03.725Z,5.24
2022-11-23T01:03:31.673Z,5.34
2022-11-23T01:06:05.782Z,5.29
2022-11-23T01:08:33.739Z,5.33
2022-11-23T01:11:04.117Z,5.26
2022-11-23T01:13:32.402Z,5.27
2022-11-23T01:16:01.714Z,5.19
2022-11-23T01:18:29.633Z,5.16
2022-11-23T01:21:02.046Z,5.13
2022-11-23T01:23:31.273Z,5.10
2022-11-23T01:26:00.155Z,5.05
2022-11-23T01:28:27.823Z,4.97
2022-11-23T01:30:55.995Z,4.95
2022-11-23T01:33:23.661Z,4.88
2022-11-23T01:35:51.408Z,4.84
2022-11-23T01:38:19.151Z,4.90
2022-11-23T01:40:48.190Z,4.84
2022-11-23T01:43:17.874Z,4.75
2022-11-23T01:45:58.999Z,4.81
2022-11-23T01:48:29.465Z,4.73
2022-11-23T01:50:59.555Z,4.75
2022-11-23T01:53:29.024Z,4.64
2022-11-23T01:56:01.067Z,4.63
2022-11-23T01:58:31.773Z,4.58
2022-11-23T02:00:59.833Z,4.53
2022-11-23T02:03:29.398Z,4.43
2022-11-23T02:06:01.764Z,4.48
2022-11-23T02:08:30.214Z,4.48
2022-11-23T02:11:00.499Z,4.51
2022-11-23T02:13:30.335Z,4.42
2022-11-23T02:15:59.263Z,4.42
2022-11-23T02:18:31.005Z,4.34
2022-11-23T02:21:00.470Z,4.38
2022-11-23T02:23:35.693Z,4.49
2022-11-23T02:26:08.988Z,4.43
2022-11-23T02:28:40.244Z,4.47
2022-11-23T02:31:07.960Z,4.54
2022-11-23T02:33:38.768Z,4.54
2022-11-23T02:36:36.836Z,4.52
2022-11-23T02:39:08.762Z,4.58
2022-11-23T02:41:40.515Z,4.58
2022-11-23T02:44:13.073Z,4.54
2022-11-23T02:46:40.750Z,4.54
2022-11-23T02:49:08.413Z,4.60
2022-11-23T02:51:36.190Z,4.59
2022-11-23T02:54:03.842Z,4.50
2022-11-23T02:56:31.429Z,4.41
2022-11-23T02:59:00.463Z,4.37
2022-11-23T03:01:29.467Z,4.46
2022-11-23T03:03:57.114Z,4.41
2022-11-23T03:06:24.723Z,4.43
2022-11-23T03:08:52.324Z,4.41
2022-11-23T03:11:20.000Z,4.33
2022-11-23T03:13:47.662Z,4.31
2022-11-23T03:16:17.365Z,4.37
2022-11-23T03:18:45.098Z,4.29
2022-11-23T03:21:12.719Z,4.29
2022-11-23T03:23:55.983Z,4.18
2022-11-23T03:26:23.609Z,4.22
2022-11-23T03:28:51.246Z,4.20
2022-11-23T03:31:20.213Z,4.13
2022-11-23T03:33:47.824Z,4.13
2022-11-23T03:36:15.522Z,4.12
2022-11-23T03:38:43.159Z,4.16
2022-11-23T03:41:10.862Z,4.03
2022-11-23T03:43:38.471Z,4.04
2022-11-23T03:46:06.446Z,4.19
2022-11-23T03:48:35.429Z,4.10
2022-11-23T03:51:03.082Z,4.12
2022-11-23T03:53:30.718Z,4.10
2022-11-23T03:55:58.357Z,4.02
2022-11-23T03:58:26.107Z,4.03
2022-11-23T04:00:53.875Z,3.97
2022-11-23T04:03:21.501Z,3.95
2022-11-23T04:05:50.538Z,3.98
2022-11-23T04:08:18.127Z,3.94
2022-11-23T04:10:45.791Z,3.91
2022-11-23T04:13:13.535Z,3.94
2022-11-23T04:15:41.413Z,3.88
2022-11-23T04:18:09.035Z,3.84
2022-11-23T04:20:36.714Z,3.84
2022-11-23T04:23:10.365Z,3.92
2022-11-23T04:25:40.647Z,3.88
2022-11-23T04:28:08.271Z,3.90
2022-11-23T04:30:35.935Z,3.96
2022-11-23T04:33:03.640Z,3.91
2022-11-23T04:35:31.291Z,3.91
2022-11-23T04:37:58.968Z,3.90
2022-11-23T04:40:28.954Z,3.96
2022-11-23T04:43:00.464Z,3.99
2022-11-23T04:45:29.314Z,4.08
2022-11-23T04:47:56.922Z,4.00
2022-11-23T04:50:24.660Z,3.99
2022-11-23T04:52:52.278Z,4.00
2022-11-23T04:55:19.935Z,3.98
2022-11-23T04:57:48.884Z,3.98
2022-11-23T05:00:17.505Z,4.02
2022-11-23T05:02:45.253Z,4.00
2022-11-23T05:05:12.933Z,3.97
2022-11-23T05:07:40.662Z,3.99
2022-11-23T05:10:09.382Z,4.04
2022-11-23T05:12:37.307Z,4.07
2022-11-23T05:15:07.222Z,4.07
2022-11-23T05:17:35.328Z,4.03
2022-11-23T05:20:03.812Z,4.17
2022-11-23T05:22:31.457Z,4.19
2022-11-23T05:24:59.100Z,4.17
2022-11-23T05:27:26.740Z,3.96
2022-11-23T05:29:54.455Z,4.02
2022-11-23T05:32:23.722Z,4.22
2022-11-23T05:34:51.431Z,4.23
2022-11-23T05:37:19.061Z,4.14
2022-11-23T05:39:46.833Z,3.95
2022-11-23T05:42:14.464Z,4.00
2022-11-23T05:44:42.132Z,4.07
2022-11-23T05:47:09.851Z,4.00
2022-11-23T05:49:38.841Z,4.26
2022-11-23T05:52:06.668Z,4.11
2022-11-23T05:54:34.423Z,4.13
2022-11-23T05:57:02.034Z,4.06
2022-11-23T05:59:30.126Z,4.02
2022-11-23T06:01:58.074Z,4.06
2022-11-23T06:04:26.019Z,4.08
2022-11-23T06:06:57.297Z,4.11
2022-11-23T06:09:24.897Z,4.13
2022-11-23T06:11:52.514Z,4.09
2022-11-23T06:14:20.518Z,4.16
2022-11-23T06:16:48.156Z,4.26
2022-11-23T06:19:15.799Z,4.32
2022-11-23T06:21:48.986Z,4.18
2022-11-23T06:24:19.404Z,4.23
2022-11-23T06:26:47.081Z,4.32
2022-11-23T06:29:15.090Z,4.38
2022-11-23T06:31:42.729Z,4.24
2022-11-23T06:34:10.420Z,4.21
2022-11-23T06:36:38.055Z,4.33
2022-11-23T06:39:06.078Z,4.30
2022-11-23T06:41:35.056Z,4.31
2022-11-23T06:44:02.914Z,4.28
2022-11-23T06:46:30.634Z,4.34
2022-11-23T06:48:58.377Z,4.44
2022-11-23T06:51:26.259Z,4.55
2022-11-23T06:53:53.943Z,4.44
2022-11-23T06:56:21.572Z,4.35
2022-11-23T06:58:50.916Z,4.42
2022-11-23T07:01:18.652Z,4.45
2022-11-23T07:03:46.284Z,4.43
2022-11-23T07:06:13.980Z,4.48
2022-11-23T07:08:43.670Z,4.37
2022-11-23T07:11:12.272Z,4.51
2022-11-23T07:13:40.408Z,4.54
2022-11-23T07:16:09.758Z,4.43
2022-11-23T07:18:37.545Z,4.49
2022-11-23T07:21:05.294Z,4.48
2022-11-23T07:23:32.956Z,4.51
2022-11-23T07:26:00.630Z,4.60
2022-11-23T07:28:28.289Z,4.64
2022-11-23T07:30:56.177Z,4.65
2022-11-23T07:33:25.174Z,4.58
2022-11-23T07:35:52.970Z,4.58
2022-11-23T07:38:20.608Z,4.61
2022-11-23T07:40:50.761Z,4.64
2022-11-23T07:43:18.441Z,4.67
2022-11-23T07:45:46.371Z,4.67
2022-11-23T07:48:14.195Z,4.62
2022-11-23T07:50:43.202Z,4.73
2022-11-23T07:53:11.667Z,4.68
2022-11-23T07:55:39.336Z,4.53
2022-11-23T07:58:07.008Z,4.67
2022-11-23T08:00:34.714Z,4.60
2022-11-23T08:03:26.813Z,4.68
2022-11-23T08:05:51.743Z,4.67
2022-11-23T08:08:19.498Z,4.67
2022-11-23T08:10:52.657Z,4.72
2022-11-23T08:13:21.755Z,4.79
2022-11-23T08:15:54.985Z,4.64
2022-11-23T08:18:24.237Z,4.73
2022-11-23T08:20:53.549Z,4.74
2022-11-23T08:23:21.988Z,4.73
2022-11-23T08:25:49.665Z,4.79
2022-11-23T08:28:17.424Z,4.89
2022-11-23T08:30:45.454Z,4.94
2022-11-23T08:33:14.150Z,4.89
2022-11-23T08:35:43.616Z,4.97
2022-11-23T08:38:13.988Z,5.09
2022-11-23T08:40:42.046Z,5.01
2022-11-23T08:43:09.831Z,4.95
2022-11-23T08:45:37.520Z,5.03
2022-11-23T08:48:05.822Z,5.19
2022-11-23T08:50:35.572Z,5.21
2022-11-23T08:53:03.279Z,5.22
2022-11-23T08:55:32.361Z,5.24
2022-11-23T08:58:00.441Z,5.37
2022-11-23T09:00:29.596Z,5.34
2022-11-23T09:02:58.910Z,5.20
2022-11-23T09:05:26.784Z,5.34
2022-11-23T09:07:54.529Z,5.40
2022-11-23T09:10:22.527Z,5.34
2022-11-23T09:12:51.804Z,5.65
2022-11-23T09:15:20.308Z,5.49
2022-11-23T09:17:48.223Z,5.50
2022-11-23T09:20:16.796Z,5.45
2022-11-23T09:22:44.814Z,5.49
2022-11-23T09:25:12.993Z,5.80
2022-11-23T09:27:40.728Z,5.95
2022-11-23T09:30:11.662Z,5.87
2022-11-23T09:32:39.618Z,5.96
2022-11-23T09:35:08.597Z,6.07
2022-11-23T09:37:36.374Z,6.10
2022-11-23T09:40:04.383Z,6.31
2022-11-23T09:42:46.114Z,6.34
2022-11-23T09:45:24.237Z,6.59
2022-11-23T09:48:15.098Z,6.54
2022-11-23T09:50:48.636Z,6.72
2022-11-23T09:53:21.024Z,6.91
2022-11-23T09:55:51.033Z,7.10
2022-11-23T09:58:21.224Z,6.81
2022-11-23T10:00:55.024Z,6.93
2022-11-23T10:03:22.695Z,7.06
2022-11-23T10:06:02.893Z,7.04
2022-11-23T10:08:39.670Z,7.26
2022-11-23T10:11:27.872Z,7.03
2022-11-23T10:14:04.708Z,7.59
2022-11-23T10:16:44.724Z,7.85
2022-11-23T10:19:26.548Z,7.50
2022-11-23T10:22:03.289Z,7.63
2022-11-23T10:24:35.791Z,7.80
2022-11-23T10:27:04.075Z,8.05
2022-11-23T10:29:34.289Z,7.95
2022-11-23T10:32:05.935Z,7.93
2022-11-23T10:34:47.474Z,8.09
2022-11-23T10:37:17.084Z,8.82
2022-11-23T10:39:45.070Z,8.85
2022-11-23T10:42:22.098Z,10.20
2022-11-23T10:44:52.351Z,9.80
2022-11-23T10:47:43.358Z,10.59
2022-11-23T10:50:27.850Z,9.54
2022-11-23T10:52:57.821Z,10.07
2022-11-23T10:55:29.756Z,10.20
2022-11-23T10:57:58.600Z,9.91
2022-11-23T11:00:30.857Z,10.28
2022-11-23T11:03:00.615Z,10.04
2022-11-23T11:08:25.605Z,10.02
2022-11-23T11:11:00.130Z,10.35
2022-11-23T11:13:30.884Z,10.31
2022-11-23T11:16:00.941Z,10.10
2022-11-23T11:18:33.557Z,10.19
2022-11-23T11:21:04.899Z,10.09
2022-11-23T11:23:34.793Z,10.11
2022-11-23T11:26:17.138Z,10.98
2022-11-23T11:28:48.403Z,11.12
2022-11-23T11:31:34.981Z,11.33
2022-11-23T11:34:16.359Z,11.98
2022-11-23T11:36:49.116Z,12.21
2022-11-23T11:39:22.946Z,12.58
2022-11-23T11:41:52.538Z,13.65
2022-11-23T11:44:23.620Z,12.26
2022-11-23T11:46:58.596Z,12.34
2022-11-23T11:49:32.178Z,12.70
2022-11-23T11:52:06.407Z,12.32
2022-11-23T11:54:42.241Z,14.24
2022-11-23T11:57:18.912Z,14.95
2022-11-23T11:59:49.902Z,14.56
2022-11-23T12:02:23.675Z,14.11
2022-11-23T12:04:59.322Z,15.47
2022-11-23T12:07:31.735Z,14.59
2022-11-23T12:10:07.831Z,15.51
2022-11-23T12:12:38.006Z,15.50
2022-11-23T12:15:20.483Z,15.09
2022-11-23T12:18:14.995Z,15.02
2022-11-23T12:20:54.556Z,14.31
2022-11-23T12:23:36.084Z,13.81
2022-11-23T12:26:17.825Z,13.61
2022-11-23T12:29:02.714Z,12.45
2022-11-23T12:31:41.967Z,13.99
2022-11-23T12:34:31.060Z,14.62
2022-11-23T12:37:13.815Z,14.41
2022-11-23T12:40:01.502Z,14.55
2022-11-23T12:42:40.021Z,12.96
2022-11-23T12:45:23.039Z,14.09
2022-11-23T12:47:59.181Z,12.43
2022-11-23T12:50:35.242Z,13.64
2022-11-23T12:53:24.550Z,12.33
2022-11-23T12:55:57.648Z,12.69
2022-11-23T12:58:29.252Z,13.41
2022-11-23T13:01:00.782Z,13.88
2022-11-23T13:04:02.536Z,12.93
2022-11-23T13:07:28.941Z,12.77
2022-11-23T13:10:25.881Z,10.96
2022-11-23T13:16:36.681Z,12.10
2022-11-23T13:19:23.611Z,11.99
2022-11-23T13:21:52.088Z,11.58
2022-11-23T13:24:27.538Z,11.46
2022-11-23T13:27:32.378Z,10.72
2022-11-23T13:30:01.319Z,10.12
2022-11-23T13:32:46.096Z,10.06
2022-11-23T13:35:47.355Z,9.85
2022-11-23T13:38:43.127Z,10.31
2022-11-23T13:41:55.094Z,10.01
2022-11-23T13:44:27.830Z,10.21
2022-11-23T13:47:08.653Z,10.20
2022-11-23T13:49:43.466Z,9.99
2022-11-23T13:52:32.270Z,10.28
2022-11-23T13:55:21.149Z,10.16
2022-11-23T13:58:22.077Z,10.30
2022-11-23T14:00:53.012Z,10.32
2022-11-23T14:03:49.467Z,10.49
2022-11-23T14:06:28.098Z,9.92
2022-11-23T14:09:03.966Z,10.24
2022-11-23T14:11:37.559Z,10.24
2022-11-23T14:14:06.425Z,10.01
2022-11-23T14:16:57.373Z,9.83
2022-11-23T14:19:32.991Z,9.81
2022-11-23T14:22:09.091Z,9.71
2022-11-23T14:24:57.897Z,9.78
2022-11-23T14:27:47.351Z,9.80
2022-11-23T14:30:26.078Z,9.52
2022-11-23T14:33:10.949Z,9.39
2022-11-23T14:35:49.305Z,9.45
2022-11-23T14:38:42.662Z,9.31
2022-11-23T14:41:14.139Z,9.15
2022-11-23T14:43:43.418Z,9.12
2022-11-23T14:46:17.289Z,9.09
2022-11-23T14:48:46.984Z,8.94
2022-11-23T14:51:18.269Z,8.70
2022-11-23T14:53:49.505Z,8.77
2022-11-23T14:56:28.368Z,8.67
2022-11-23T14:59:00.981Z,8.78
2022-11-23T15:01:29.133Z,8.53
2022-11-23T15:03:59.802Z,8.47
2022-11-23T15:06:33.088Z,8.45
2022-11-23T15:09:08.552Z,8.46
2022-11-23T15:11:38.496Z,8.29
2022-11-23T15:14:18.746Z,8.29
2022-11-23T15:16:47.434Z,8.20
2022-11-23T15:19:20.739Z,8.18
2022-11-23T15:21:49.378Z,8.01
2022-11-23T15:24:23.148Z,7.92
2022-11-23T15:26:50.969Z,7.85
2022-11-23T15:29:35.530Z,7.78
2022-11-23T15:34:55.936Z,7.71
2022-11-23T15:37:24.883Z,7.63
2022-11-23T15:39:54.648Z,7.60
2022-11-23T15:42:25.446Z,7.61
2022-11-23T15:44:54.943Z,7.45
2022-11-23T15:47:27.269Z,7.42
2022-11-23T15:50:01.197Z,7.37
2022-11-23T15:52:34.083Z,7.35
2022-11-23T15:55:09.195Z,7.27
2022-11-23T15:57:39.417Z,7.23
2022-11-23T16:00:09.377Z,7.20
2022-11-23T16:02:37.693Z,7.12
2022-11-23T16:05:14.857Z,7.12
2022-11-23T16:07:53.636Z,7.01
2022-11-23T16:10:23.343Z,7.03
2022-11-23T16:12:53.193Z,6.88
2022-11-23T16:15:38.320Z,6.88
2022-11-23T16:18:16.650Z,6.88
2022-11-23T16:20:46.458Z,6.77
2022-11-23T16:23:20.424Z,6.78
2022-11-23T16:25:55.866Z,6.64
2022-11-23T16:28:29.592Z,6.66
2022-11-23T16:30:57.925Z,6.61
2022-11-23T16:33:26.231Z,6.57
2022-11-23T16:35:55.347Z,6.45
2022-11-23T16:38:24.248Z,6.44
2022-11-23T16:40:51.999Z,6.47
2022-11-23T16:43:19.883Z,6.38
2022-11-23T16:45:50.656Z,6.35
2022-11-23T16:48:40.044Z,6.23
2022-11-23T16:51:14.178Z,6.22
2022-11-23T16:56:34.094Z,6.00
2022-11-23T16:59:01.992Z,5.91
2022-11-23T17:01:31.082Z,5.87
2022-11-23T17:03:58.723Z,5.84
2022-11-23T17:06:27.790Z,5.81
2022-11-23T17:09:03.199Z,5.83
2022-11-23T17:11:34.180Z,5.69
2022-11-23T17:14:01.946Z,5.78
2022-11-23T17:16:31.013Z,5.71
2022-11-23T17:18:58.722Z,5.67
2022-11-23T17:21:27.713Z,5.60
2022-11-23T17:23:56.397Z,5.60
2022-11-23T17:26:33.969Z,5.57
2022-11-23T17:29:03.471Z,5.60
2022-11-23T17:31:31.502Z,5.46
2022-11-23T17:33:59.194Z,5.57
2022-11-23T17:36:28.505Z,5.60
2022-11-23T17:38:56.181Z,5.56
2022-11-23T17:41:23.869Z,5.58
2022-11-23T17:43:51.521Z,5.54
2022-11-23T17:46:22.367Z,5.51
2022-11-23T17:48:52.959Z,5.51
2022-11-23T17:51:20.657Z,5.42
2022-11-23T17:53:49.643Z,5.32
2022-11-23T17:56:19.454Z,5.27
2022-11-23T17:58:47.621Z,5.24
2022-11-23T18:01:16.938Z,5.21
2022-11-23T18:03:45.574Z,5.11
2022-11-23T18:06:15.265Z,5.11
2022-11-23T18:08:43.454Z,5.08
2022-11-23T18:11:12.911Z,5.09
2022-11-23T18:13:42.130Z,5.05
2022-11-23T18:16:11.033Z,4.99
2022-11-23T18:18:39.340Z,4.89
2022-11-23T18:21:09.715Z,4.91
2022-11-23T18:23:37.581Z,4.80
2022-11-23T18:26:11.347Z,4.78
2022-11-23T18:28:40.538Z,4.75
2022-11-23T18:31:08.492Z,4.67
2022-11-23T18:33:36.394Z,4.68
2022-11-23T18:36:05.737Z,4.70
2022-11-23T18:38:33.848Z,4.66
2022-11-23T18:41:01.800Z,4.60
2022-11-23T18:43:29.607Z,4.47
2022-11-23T18:45:58.892Z,4.45
2022-11-23T18:48:26.636Z,4.51
2022-11-23T18:50:54.834Z,4.39
2022-11-23T18:53:23.050Z,4.39
2022-11-23T18:55:51.731Z,4.43
2022-11-23T18:58:21.606Z,4.37
2022-11-23T19:00:49.720Z,4.36
2022-11-23T19:03:18.704Z,4.29
2022-11-23T19:05:46.369Z,4.25
2022-11-23T19:08:16.245Z,4.32
2022-11-23T19:10:43.868Z,4.34
2022-11-23T19:13:11.497Z,4.25
2022-11-23T19:15:39.138Z,4.28
2022-11-23T19:18:06.950Z,4.20
2022-11-23T19:20:35.930Z,4.19
2022-11-23T19:23:03.579Z,4.08
2022-11-23T19:25:31.256Z,4.07
2022-11-23T19:28:01.580Z,4.04
2022-11-23T19:30:29.193Z,4.01
2022-11-23T19:32:57.056Z,4.04
2022-11-23T19:35:24.718Z,4.04
2022-11-23T19:37:53.727Z,4.03
2022-11-23T19:40:21.305Z,4.05
2022-11-23T19:42:48.946Z,4.05
2022-11-23T19:45:16.736Z,4.05
2022-11-23T19:47:44.565Z,3.97
2022-11-23T19:50:13.708Z,4.00
2022-11-23T19:53:10.750Z,3.99
2022-11-23T19:55:30.697Z,3.98
2022-11-23T19:57:58.483Z,3.95
2022-11-23T20:00:26.168Z,3.98
2022-11-23T20:02:53.940Z,4.04
2022-11-23T20:05:21.844Z,4.02
2022-11-23T20:07:49.923Z,4.06
2022-11-23T20:10:18.322Z,4.17
2022-11-23T20:12:47.432Z,4.07
2022-11-23T20:15:15.198Z,4.22
2022-11-23T20:17:45.219Z,4.22
2022-11-23T20:20:13.302Z,4.23
2022-11-23T20:22:42.804Z,4.23
2022-11-23T20:25:10.977Z,4.47
2022-11-23T20:27:38.801Z,4.44
2022-11-23T20:30:08.566Z,4.44
2022-11-23T20:32:36.394Z,4.51
2022-11-23T20:35:04.170Z,4.35
2022-11-23T20:37:34.452Z,4.37
2022-11-23T20:40:02.648Z,4.39
2022-11-23T20:42:30.381Z,4.31
2022-11-23T20:44:58.028Z,4.37
2022-11-23T20:47:28.061Z,4.38
2022-11-23T20:49:55.819Z,4.27
2022-11-23T20:52:23.675Z,4.14
2022-11-23T20:54:51.876Z,4.24
2022-11-23T20:57:21.413Z,4.30
2022-11-23T20:59:49.491Z,4.36
2022-11-23T21:02:17.696Z,4.26
2022-11-23T21:04:48.149Z,4.19
2022-11-23T21:07:16.277Z,4.27
2022-11-23T21:09:44.086Z,4.32
2022-11-23T21:12:29.598Z,4.31
2022-11-23T21:14:57.555Z,4.37
2022-11-23T21:17:25.459Z,4.36
2022-11-23T21:19:54.550Z,4.34
2022-11-23T21:22:22.324Z,4.36
2022-11-23T21:24:50.047Z,4.43
2022-11-23T21:27:19.638Z,4.45
2022-11-23T21:29:48.447Z,4.44
2022-11-23T21:32:16.569Z,4.51
2022-11-23T21:34:44.483Z,4.50
2022-11-23T21:37:13.763Z,4.47
2022-11-23T21:39:41.900Z,4.37
2022-11-23T21:42:10.401Z,4.49
2022-11-23T21:44:38.430Z,4.56
2022-11-23T21:47:07.317Z,4.59
2022-11-23T21:49:36.519Z,4.63
2022-11-23T21:52:04.656Z,4.52
2022-11-23T21:54:33.905Z,4.51
2022-11-23T21:57:02.201Z,4.59
2022-11-23T21:59:29.925Z,4.63
2022-11-23T22:01:58.857Z,4.69
2022-11-23T22:04:27.053Z,4.66
2022-11-23T22:06:54.742Z,4.82
2022-11-23T22:09:22.458Z,4.67
2022-11-23T22:11:51.522Z,4.73
2022-11-23T22:14:19.979Z,4.53
2022-11-23T22:16:49.996Z,4.53
2022-11-23T22:19:18.727Z,4.60
2022-11-23T22:21:47.297Z,4.71
2022-11-23T22:24:17.412Z,4.76
2022-11-23T22:26:46.407Z,4.74
2022-11-23T22:29:16.093Z,4.80
2022-11-23T22:31:44.074Z,4.76
2022-11-23T22:34:13.500Z,4.69
2022-11-23T22:36:41.609Z,4.62
2022-11-23T22:39:09.536Z,4.60
2022-11-23T22:41:38.201Z,4.65
2022-11-23T22:44:08.268Z,4.66
2022-11-23T22:46:38.215Z,4.57
2022-11-23T22:49:06.434Z,4.61
2022-11-23T22:51:34.413Z,4.71
2022-11-23T22:54:02.622Z,4.70
2022-11-23T22:56:31.453Z,4.74
2022-11-23T22:58:59.876Z,4.59
2022-11-23T23:01:29.629Z,4.73
2022-11-23T23:04:00.435Z,4.74
2022-11-23T23:06:29.358Z,4.73
2022-11-23T23:08:58.270Z,4.72
2022-11-23T23:11:27.494Z,4.79
2022-11-23T23:13:55.487Z,4.70
2022-11-23T23:16:23.882Z,4.70
2022-11-23T23:18:51.693Z,4.66
2022-11-23T23:21:22.413Z,4.64
2022-11-23T23:23:52.344Z,4.72
2022-11-23T23:26:21.820Z,4.78
2022-11-23T23:28:49.880Z,4.84
2022-11-23T23:31:18.445Z,4.94
2022-11-23T23:33:47.131Z,5.00
2022-11-23T23:36:16.530Z,4.98
2022-11-23T23:38:45.569Z,4.97
2022-11-23T23:41:14.513Z,5.02
2022-11-23T23:43:42.529Z,5.12
2022-11-23T23:46:12.587Z,5.09
2022-11-23T23:48:41.764Z,5.20
2022-11-23T23:51:11.137Z,5.22
2022-11-23T23:53:38.813Z,5.18
2022-11-23T23:56:12.487Z,5.12
2022-11-23T23:58:40.131Z,5.18
